Frankenmuth, MI (48734)

6:55 PM EST on January 30, 2015 (GMT -0500)
Baker Rd | Change Station
CLOSE
Current Station
Personal Weather Station
Location: Frankenmuth, MI
Elevation: 633 ft
Nearby Weather Stations

Elev 633 ft 43.36 °N, 83.80 °W | Updated 7 minutes ago

Clear
Clear
9.5 °F
Feels Like 10 °F
N
0.0
Wind Variable Wind from ESE

Today
High -- | Low -- °F
--% Chance of Precip.
Yesterday
High -- | Low -- °F
Precip. -- in
7:53 AM 5:43 PM
Waxing Gibbous, 86% visible
Pressure 30.41 in
Visibility 10.0 miles
Clouds Clear
Windchill 10 °F
Dew Point 4 °F
Humidity 76%
Rainfall 0.00 in
Snow Depth Not available.
UV 0 out of 12
Pollen .10 out of 12
Air Quality Not available.
Flu Activity Not available.
METAR KHYX 302335Z AUTO 12005KT 10SM CLR M10/M15 A3041 RMK AO2

More Conditions Fewer Conditions

Pressure 30.41 in
Visibility 10.0 miles
Clouds Clear
Windchill 10 °F
Dew Point 4 °F
Humidity 76%
Rainfall 0.00 in
Snow Depth Not available.
UV 0 out of 12
Pollen .10 out of 12
Air Quality Not available.
Flu Activity Not available.
METAR KHYX 302335Z AUTO 12005KT 10SM CLR M10/M15 A3041 RMK AO2

More Conditions Fewer Conditions

10-Day Weather Forecast

Almanac

Astronomy

Jan. 30, 2015 Rise Set
Actual Time
Civil Twilight
Nautical Twilight
Astronomical Twilight
Moon
Length of Visible Light
Length of Day
Tomorrow will be .
, % of the Moon is Illuminated

Today's Extremes

State Highs State Lows

Community

WunderPhotos

Upload Photos

1,791,934 photos uploaded!

WunderBlogs® & News

Nearby

Air Quality

  Air Quality AQ Index Pollutant
Not available.

Snow Depth

Station Depth Elevation

Earthquake Activity

City Distance Mag. Time & Date
Minimum magnitude displayed is 2.5.

Coastal Water Temperatures

Place Temperature

Nearby Weather Stations